createdAt,value
2018-09-10T04:51:42.592Z,24.95
2018-09-10T04:54:10.572Z,24.80
2018-09-10T04:57:14.505Z,24.88
2018-09-10T04:59:42.857Z,24.97
2018-09-10T05:02:12.201Z,24.97
2018-09-10T05:04:40.028Z,24.78
2018-09-10T05:07:08.893Z,24.89
2018-09-10T05:09:36.649Z,24.82
2018-09-10T05:12:05.604Z,24.84
2018-09-10T05:14:33.939Z,24.89
2018-09-10T05:17:02.271Z,24.89
2018-09-10T05:19:30.163Z,24.97
2018-09-10T05:21:58.514Z,24.98
2018-09-10T05:24:27.411Z,24.91
2018-09-10T05:26:55.757Z,24.83
2018-09-10T05:29:23.698Z,24.87
2018-09-10T05:31:52.016Z,24.88
2018-09-10T05:34:20.925Z,24.79
2018-09-10T05:36:49.262Z,24.45
2018-09-10T05:39:17.606Z,24.21
2018-09-10T05:41:45.465Z,24.05
2018-09-10T05:44:14.275Z,24.20
2018-09-10T05:46:42.036Z,24.52
2018-09-10T05:49:10.952Z,24.59
2018-09-10T05:51:38.716Z,24.54
2018-09-10T05:54:07.626Z,24.56
2018-09-10T05:56:35.959Z,24.42
2018-09-10T05:59:04.301Z,24.52
2018-09-10T06:01:32.655Z,24.12
2018-09-10T06:04:00.401Z,24.37
2018-09-10T06:06:28.721Z,24.50
2018-09-10T06:08:57.061Z,24.57
2018-09-10T06:11:25.977Z,24.42
2018-09-10T06:13:53.732Z,24.38
2018-09-10T06:16:22.659Z,24.56
2018-09-10T06:18:50.414Z,24.49
2018-09-10T06:21:19.323Z,24.58
2018-09-10T06:23:47.668Z,24.57
2018-09-10T06:26:15.998Z,24.27
2018-09-10T06:28:43.749Z,24.45
2018-09-10T06:31:12.089Z,24.48
2018-09-10T06:33:40.431Z,24.47
2018-09-10T06:36:09.352Z,24.57
2018-09-10T06:38:37.683Z,24.57
2018-09-10T06:41:05.429Z,24.56
2018-09-10T06:43:34.340Z,24.84
2018-09-10T06:46:02.675Z,24.67
2018-09-10T06:48:30.428Z,24.66
2018-09-10T06:50:59.342Z,24.74
2018-09-10T06:53:27.780Z,24.75
2018-09-10T06:55:56.008Z,24.78
2018-09-10T06:58:24.452Z,24.73
2018-09-10T07:00:52.246Z,24.85
2018-09-10T07:03:20.585Z,24.82
2018-09-10T07:05:49.491Z,24.72
2018-09-10T07:08:17.815Z,24.74
2018-09-10T07:10:46.144Z,24.93
2018-09-10T07:13:14.531Z,24.91
2018-09-10T07:15:42.217Z,24.90
2018-09-10T07:18:10.547Z,24.84
2018-09-10T07:20:38.872Z,24.98
2018-09-10T07:23:07.205Z,25.10
2018-09-10T07:25:36.117Z,25.08
2018-09-10T07:28:04.425Z,25.03
2018-09-10T07:30:32.751Z,24.98
2018-09-10T07:33:01.070Z,25.02
2018-09-10T07:35:29.390Z,25.07
2018-09-10T07:37:57.130Z,25.00
2018-09-10T07:40:26.031Z,25.05
2018-09-10T07:42:54.668Z,24.99
2018-09-10T07:45:22.992Z,25.04
2018-09-10T07:47:50.849Z,24.84
2018-09-10T07:50:19.607Z,24.84
2018-09-10T07:52:47.499Z,24.75
2018-09-10T07:55:16.395Z,24.64
2018-09-10T07:57:44.719Z,24.57
2018-09-10T08:00:12.458Z,24.66
2018-09-10T08:02:42.295Z,24.65
2018-09-10T08:05:10.047Z,24.55
2018-09-10T08:07:38.387Z,24.56
2018-09-10T08:10:07.294Z,24.47
2018-09-10T08:12:35.053Z,24.66
2018-09-10T08:15:03.970Z,24.67
2018-09-10T08:17:32.302Z,24.74
2018-09-10T08:20:00.638Z,24.92
2018-09-10T08:22:28.393Z,25.10
2018-09-10T08:24:56.728Z,25.09
2018-09-10T08:27:25.641Z,25.08
2018-09-10T08:29:53.977Z,25.15
2018-09-10T08:32:22.317Z,25.24
2018-09-10T08:34:50.066Z,25.13
2018-09-10T08:37:18.985Z,25.22
2018-09-10T08:39:47.326Z,25.17
2018-09-10T08:42:15.655Z,25.05
2018-09-10T08:44:43.502Z,25.03
2018-09-10T08:47:11.841Z,25.06
2018-09-10T08:49:40.172Z,25.12
2018-09-10T08:52:09.126Z,25.03
2018-09-10T08:54:37.082Z,25.17
2018-09-10T08:57:05.793Z,25.17
2018-09-10T08:59:34.130Z,25.05
2018-09-10T09:02:02.645Z,25.18
2018-09-10T09:04:30.798Z,25.22
2018-09-10T09:06:58.725Z,25.16
2018-09-10T09:09:27.638Z,25.22
2018-09-10T09:11:55.983Z,25.14
2018-09-10T09:14:24.314Z,25.18
2018-09-10T09:16:52.251Z,25.23
2018-09-10T09:19:21.165Z,25.16
2018-09-10T09:21:49.492Z,25.15
2018-09-10T09:24:17.512Z,25.31
2018-09-10T09:26:45.574Z,25.22
2018-09-10T09:29:13.918Z,24.81
2018-09-10T09:31:42.430Z,25.09
2018-09-10T09:34:11.348Z,25.13
2018-09-10T09:36:40.458Z,25.11
2018-09-10T09:39:11.358Z,25.21
2018-09-10T09:41:42.189Z,25.19
2018-09-10T09:44:16.249Z,25.13
2018-09-10T09:46:44.005Z,25.08
2018-09-10T09:52:11.073Z,25.28
2018-09-10T09:54:39.405Z,25.23
2018-09-10T09:57:07.164Z,25.21
2018-09-10T09:59:35.679Z,25.17
2018-09-10T10:02:03.834Z,25.25
2018-09-10T10:04:32.961Z,25.16
2018-09-10T10:07:00.668Z,25.20
2018-09-10T10:09:29.582Z,25.21
2018-09-10T10:11:58.003Z,25.16
2018-09-10T10:14:25.800Z,25.23
2018-09-10T10:16:54.725Z,25.30
2018-09-10T10:19:23.054Z,25.26
2018-09-10T10:21:50.811Z,25.26
2018-09-10T10:24:19.728Z,25.22
2018-09-10T10:26:47.476Z,25.15
2018-09-10T10:29:16.391Z,25.17
2018-09-10T10:31:44.142Z,25.17
2018-09-10T10:34:12.483Z,25.30
2018-09-10T10:36:40.822Z,25.36
2018-09-10T10:39:09.745Z,25.31
2018-09-10T10:41:37.485Z,25.19
2018-09-10T10:44:06.393Z,25.42
2018-09-10T10:46:45.094Z,25.53
2018-09-10T10:49:13.127Z,25.34
2018-09-10T10:51:41.178Z,25.24
2018-09-10T10:54:09.503Z,25.38
2018-09-10T10:56:38.402Z,25.22
2018-09-10T10:59:06.726Z,25.21
2018-09-10T11:01:35.047Z,25.37
2018-09-10T11:04:02.848Z,25.46
2018-09-10T11:06:31.695Z,25.58
2018-09-10T11:09:00.340Z,25.36
2018-09-10T11:11:28.667Z,25.44
2018-09-10T11:13:56.987Z,25.76
2018-09-10T11:16:25.302Z,25.70
2018-09-10T11:18:53.621Z,25.24
2018-09-10T11:21:21.946Z,25.26
2018-09-10T11:23:50.275Z,25.26
2018-09-10T11:26:18.025Z,25.28
2018-09-10T11:28:46.358Z,25.31
2018-09-10T11:31:15.273Z,25.43
2018-09-10T11:33:43.022Z,25.40
2018-09-10T11:36:11.361Z,25.43
2018-09-10T11:38:40.281Z,25.50
2018-09-10T11:41:08.030Z,25.52
2018-09-10T11:43:36.937Z,25.44
2018-09-10T11:46:05.268Z,25.48
2018-09-10T11:48:33.013Z,25.39
2018-09-10T11:51:01.918Z,25.45
2018-09-10T11:53:30.246Z,25.46
2018-09-10T11:55:58.560Z,25.48
2018-09-10T11:58:26.316Z,25.38
2018-09-10T12:00:54.709Z,25.59
2018-09-10T12:03:22.982Z,25.54
2018-09-10T12:05:51.897Z,25.55
2018-09-10T12:08:20.413Z,25.54
2018-09-10T12:10:48.682Z,25.56
2018-09-10T12:13:17.019Z,25.58
2018-09-10T12:15:45.342Z,25.41
2018-09-10T12:18:13.670Z,25.52
2018-09-10T12:20:46.966Z,25.62
2018-09-10T12:23:14.728Z,25.61
2018-09-10T12:25:43.640Z,25.75
2018-09-10T12:28:11.987Z,25.63
2018-09-10T12:30:39.740Z,25.70
2018-09-10T12:33:08.079Z,25.71
2018-09-10T12:35:36.414Z,25.75
2018-09-10T12:38:04.743Z,25.75
2018-09-10T12:40:33.654Z,25.71
2018-09-10T12:43:01.986Z,25.78
2018-09-10T12:45:30.314Z,25.75
2018-09-10T12:47:58.644Z,25.81
2018-09-10T12:50:26.979Z,25.92
2018-09-10T12:52:54.726Z,25.76
2018-09-10T12:55:23.057Z,25.81
2018-09-10T12:57:51.968Z,25.89
2018-09-10T13:00:19.716Z,25.83
2018-09-10T13:02:48.622Z,25.88
2018-09-10T13:05:16.942Z,26.03
2018-09-10T13:07:45.263Z,25.95
2018-09-10T13:10:13.587Z,26.07
2018-09-10T13:12:41.906Z,26.08
2018-09-10T13:15:10.234Z,25.97
2018-09-10T13:17:38.550Z,26.12
2018-09-10T13:20:06.879Z,26.08
2018-09-10T13:22:35.208Z,26.20
2018-09-10T13:25:02.964Z,26.33
2018-09-10T13:27:31.302Z,26.20
2018-09-10T13:30:00.697Z,26.17
2018-09-10T13:32:28.461Z,26.15
2018-09-10T13:34:57.375Z,26.20
2018-09-10T13:37:25.709Z,26.16
2018-09-10T13:39:54.041Z,26.18
2018-09-10T13:42:21.799Z,26.22
2018-09-10T13:44:50.714Z,26.31
2018-09-10T13:47:19.041Z,26.36
2018-09-10T13:49:47.382Z,26.33
2018-09-10T13:52:15.133Z,26.33
2018-09-10T13:54:44.043Z,26.42
2018-09-10T13:57:11.793Z,26.35
2018-09-10T13:59:40.730Z,26.30
2018-09-10T14:02:08.461Z,26.41
2018-09-10T14:04:37.358Z,26.32
2018-09-10T14:07:05.686Z,26.34
2018-09-10T14:09:33.436Z,26.56
2018-09-10T14:12:01.873Z,26.25
2018-09-10T14:14:30.205Z,26.18
2018-09-10T14:16:59.122Z,26.26
2018-09-10T14:19:26.890Z,26.14
2018-09-10T14:21:55.810Z,26.13
2018-09-10T14:24:24.144Z,26.17
2018-09-10T14:26:51.900Z,26.13
2018-09-10T14:29:20.234Z,26.09
2018-09-10T14:31:49.139Z,26.12
2018-09-10T14:34:17.467Z,26.10
2018-09-10T14:36:45.788Z,26.08
2018-09-10T14:39:14.108Z,26.02
2018-09-10T14:41:42.716Z,26.04
2018-09-10T14:44:11.044Z,26.06
2018-09-10T14:46:39.368Z,25.83
2018-09-10T14:49:07.104Z,25.67
2018-09-10T14:51:35.432Z,25.64
2018-09-10T14:54:03.757Z,25.60
2018-09-10T14:56:32.093Z,25.55
2018-09-10T14:59:00.412Z,25.66
2018-09-10T15:01:29.315Z,25.54
2018-09-10T15:03:57.647Z,25.55
2018-09-10T15:06:25.401Z,25.66
2018-09-10T15:08:53.709Z,25.68
2018-09-10T15:11:22.610Z,25.75
2018-09-10T15:13:50.929Z,25.72
2018-09-10T15:16:19.248Z,25.67
2018-09-10T15:18:48.556Z,25.72
2018-09-10T15:21:16.861Z,25.66
2018-09-10T15:23:45.180Z,25.71
2018-09-10T15:26:13.576Z,25.78
2018-09-10T15:28:42.707Z,25.71
2018-09-10T15:31:11.030Z,25.75
2018-09-10T15:33:39.346Z,25.82
2018-09-10T15:36:07.684Z,25.85
2018-09-10T15:38:36.013Z,25.79
2018-09-10T15:41:04.337Z,25.85
2018-09-10T15:43:32.660Z,25.84
2018-09-10T15:46:00.983Z,25.88
2018-09-10T15:48:28.729Z,25.83
2018-09-10T15:50:57.632Z,25.82
2018-09-10T15:53:26.012Z,25.88
2018-09-10T15:55:54.496Z,25.82
2018-09-10T15:58:23.413Z,25.82
2018-09-10T16:00:51.737Z,25.97
2018-09-10T16:03:20.069Z,25.80
2018-09-10T16:05:48.400Z,25.85
2018-09-10T16:08:16.725Z,25.84
2018-09-10T16:10:45.104Z,25.86
2018-09-10T16:13:13.426Z,25.91
2018-09-10T16:15:41.184Z,25.92
2018-09-10T16:18:10.127Z,25.89
2018-09-10T16:20:38.453Z,25.91
2018-09-10T16:23:06.793Z,26.00
2018-09-10T16:25:36.051Z,25.91
2018-09-10T16:28:04.404Z,25.85
2018-09-10T16:30:32.121Z,25.94
2018-09-10T16:33:00.449Z,25.86
2018-09-10T16:35:29.361Z,25.87
2018-09-10T16:37:57.300Z,25.89
2018-09-10T16:40:25.440Z,25.94
2018-09-10T16:42:54.361Z,25.88
2018-09-10T16:45:22.696Z,25.95
2018-09-10T16:47:51.033Z,25.87
2018-09-10T16:50:19.356Z,25.88
2018-09-10T16:52:47.694Z,25.89
2018-09-10T16:55:16.006Z,25.78
2018-09-10T16:57:44.355Z,25.79
2018-09-10T17:00:12.691Z,25.76
2018-09-10T17:02:41.664Z,25.80
2018-09-10T17:05:09.992Z,25.77
2018-09-10T17:07:38.344Z,25.87
2018-09-10T17:10:06.671Z,25.85
2018-09-10T17:12:34.656Z,25.89
2018-09-10T17:15:03.512Z,25.90
2018-09-10T17:17:31.849Z,25.99
2018-09-10T17:19:59.600Z,25.86
2018-09-10T17:22:28.593Z,25.78
2018-09-10T17:24:56.263Z,25.75
2018-09-10T17:27:25.183Z,25.82
2018-09-10T17:29:53.550Z,25.70
2018-09-10T17:32:21.305Z,25.79
2018-09-10T17:34:50.231Z,25.85
2018-09-10T17:37:18.556Z,25.77
2018-09-10T17:39:46.305Z,25.77
2018-09-10T17:42:15.212Z,25.81
2018-09-10T17:44:43.572Z,25.74
2018-09-10T17:47:11.485Z,25.49
2018-09-10T17:49:40.358Z,25.55
2018-09-10T17:52:08.738Z,25.71
2018-09-10T17:54:36.490Z,25.72
2018-09-10T17:57:06.357Z,25.81
2018-09-10T17:59:34.019Z,25.81
2018-09-10T18:02:02.360Z,25.83
2018-09-10T18:04:30.697Z,25.78
2018-09-10T18:06:59.050Z,25.78
2018-09-10T18:09:27.386Z,25.89
2018-09-10T18:11:55.725Z,25.80
2018-09-10T18:14:23.480Z,25.85
2018-09-10T18:16:52.393Z,25.72
2018-09-10T18:19:20.157Z,25.59
2018-09-10T18:21:49.074Z,25.67
2018-09-10T18:24:17.485Z,25.76
2018-09-10T18:26:45.244Z,25.66
2018-09-10T18:29:14.173Z,25.63
2018-09-10T18:31:42.631Z,25.74
2018-09-10T18:34:11.000Z,25.82
2018-09-10T18:36:39.322Z,25.69
2018-09-10T18:39:07.665Z,25.63
2018-09-10T18:41:36.002Z,25.86
2018-09-10T18:44:04.338Z,25.73
2018-09-10T18:46:32.127Z,25.79
2018-09-10T18:49:01.099Z,25.86
2018-09-10T18:51:29.570Z,25.90
2018-09-10T18:53:57.325Z,25.90
2018-09-10T18:56:25.667Z,25.87
2018-09-10T18:58:54.017Z,25.80
2018-09-10T19:01:23.136Z,25.90
2018-09-10T19:03:51.336Z,25.85
2018-09-10T19:06:19.242Z,25.75
2018-09-10T19:08:47.507Z,25.82
2018-09-10T19:11:16.428Z,25.64
2018-09-10T19:13:44.181Z,25.75
2018-09-10T19:16:13.106Z,25.83
2018-09-10T19:18:41.436Z,25.81
2018-09-10T19:21:10.025Z,25.31
2018-09-10T19:23:38.370Z,24.77
2018-09-10T19:26:07.054Z,25.40
2018-09-10T19:28:35.978Z,25.51
2018-09-10T19:31:03.748Z,25.51
2018-09-10T19:33:32.068Z,25.71
2018-09-10T19:36:01.054Z,25.72
2018-09-10T19:38:29.337Z,25.78
2018-09-10T19:40:57.086Z,25.75
2018-09-10T19:43:26.003Z,25.73
2018-09-10T19:45:54.340Z,25.77
2018-09-10T19:48:22.736Z,25.78
2018-09-10T19:50:51.072Z,25.76
2018-09-10T19:53:19.404Z,25.70
2018-09-10T19:55:47.744Z,25.59
2018-09-10T19:58:16.081Z,25.44
2018-09-10T20:00:44.535Z,25.55
2018-09-10T20:03:13.019Z,25.59
2018-09-10T20:05:41.360Z,25.74
2018-09-10T20:08:09.118Z,25.70
2018-09-10T20:10:38.170Z,25.66
2018-09-10T20:13:05.912Z,25.71
2018-09-10T20:15:34.841Z,25.85
2018-09-10T20:18:03.189Z,25.87
2018-09-10T20:20:31.724Z,25.74
2018-09-10T20:23:00.014Z,25.65
2018-09-10T20:25:28.648Z,25.67
2018-09-10T20:27:56.663Z,25.89
2018-09-10T20:30:25.738Z,25.77
2018-09-10T20:32:55.959Z,25.73
2018-09-10T20:35:23.713Z,25.89
2018-09-10T20:37:52.050Z,25.79
2018-09-10T20:40:20.963Z,25.72
2018-09-10T20:42:49.963Z,25.70
2018-09-10T20:45:17.722Z,25.64
2018-09-10T20:47:50.262Z,25.72
2018-09-10T20:50:18.806Z,25.71
2018-09-10T20:52:47.155Z,25.80
2018-09-10T20:55:16.195Z,25.74
2018-09-10T20:57:43.829Z,25.69
2018-09-10T21:00:11.591Z,25.71
2018-09-10T21:02:41.446Z,25.83
2018-09-10T21:05:09.777Z,25.76
2018-09-10T21:07:38.148Z,25.66
2018-09-10T21:10:06.453Z,25.65
2018-09-10T21:12:34.206Z,25.63
2018-09-10T21:15:03.128Z,25.68
2018-09-10T21:17:31.462Z,25.68
2018-09-10T21:20:01.191Z,25.66
2018-09-10T21:22:30.093Z,25.60
2018-09-10T21:24:58.491Z,25.68
2018-09-10T21:27:26.250Z,25.66
2018-09-10T21:29:54.581Z,25.58
2018-09-10T21:32:22.933Z,25.60
2018-09-10T21:34:51.835Z,25.57
2018-09-10T21:37:19.589Z,25.67
2018-09-10T21:39:47.924Z,25.60
2018-09-10T21:42:16.261Z,25.55
2018-09-10T21:44:45.177Z,25.57
2018-09-10T21:47:12.983Z,25.51
2018-09-10T21:49:41.260Z,25.52
2018-09-10T21:52:09.598Z,25.45
2018-09-10T21:54:38.518Z,25.46
2018-09-10T21:57:06.849Z,25.42
2018-09-10T21:59:34.601Z,25.43
2018-09-10T22:02:03.522Z,25.40
2018-09-10T22:04:31.856Z,25.40
2018-09-10T22:06:59.605Z,25.46
2018-09-10T22:09:27.950Z,25.41
2018-09-10T22:11:56.904Z,25.36
2018-09-10T22:14:25.240Z,25.34
2018-09-10T22:16:53.977Z,25.30
2018-09-10T22:19:21.730Z,25.41
2018-09-10T22:21:50.650Z,25.32
2018-09-10T22:24:18.401Z,25.37
2018-09-10T22:26:47.318Z,25.28
2018-09-10T22:29:15.656Z,25.31
2018-09-10T22:31:43.991Z,25.27
2018-09-10T22:34:12.864Z,25.27
2018-09-10T22:36:40.623Z,25.26
2018-09-10T22:39:09.529Z,25.26
2018-09-10T22:41:37.286Z,25.29
2018-09-10T22:44:06.206Z,25.24
2018-09-10T22:46:33.961Z,25.26
2018-09-10T22:49:02.868Z,25.22
2018-09-10T22:51:31.198Z,25.25
2018-09-10T22:53:58.948Z,25.17
2018-09-10T22:56:27.866Z,25.22
2018-09-10T22:58:56.519Z,25.18
2018-09-10T23:01:24.853Z,25.22
2018-09-10T23:03:52.612Z,25.24
2018-09-10T23:06:21.516Z,25.17
2018-09-10T23:08:49.263Z,25.28
2018-09-10T23:11:18.173Z,25.23
2018-09-10T23:13:46.516Z,25.30
2018-09-10T23:16:14.258Z,25.30
2018-09-10T23:18:43.160Z,25.33
2018-09-10T23:21:11.481Z,25.35
2018-09-10T23:23:39.225Z,25.19
2018-09-10T23:26:07.552Z,25.23
2018-09-10T23:28:36.453Z,25.30
2018-09-10T23:31:04.776Z,25.28
2018-09-10T23:33:32.522Z,25.30
2018-09-10T23:36:01.418Z,25.30
2018-09-10T23:38:29.160Z,25.31
2018-09-10T23:40:57.563Z,25.28
2018-09-10T23:43:25.809Z,25.21
2018-09-10T23:45:54.711Z,25.25
2018-09-10T23:48:23.040Z,25.21
2018-09-10T23:50:51.376Z,25.22
2018-09-10T23:53:19.700Z,25.24
2018-09-10T23:55:48.021Z,25.27
2018-09-10T23:58:16.353Z,25.23
